createdAt,value
2023-04-27T00:03:35.233Z,16.6
2023-04-27T00:09:29.837Z,16.4
2023-04-27T00:15:20.569Z,16.3
2023-04-27T00:21:11.996Z,16.3
2023-04-27T00:26:48.683Z,16.1
2023-04-27T00:32:39.867Z,16.1
2023-04-27T00:38:30.444Z,15.9
2023-04-27T00:44:21.881Z,15.9
2023-04-27T00:50:15.341Z,15.8
2023-04-27T00:56:06.096Z,15.8
2023-04-27T01:01:43.013Z,15.7
2023-04-27T01:07:36.428Z,15.7
2023-04-27T01:13:27.927Z,15.6
2023-04-27T01:19:20.176Z,15.6
2023-04-27T01:25:13.220Z,15.6
2023-04-27T01:31:04.779Z,15.5
2023-04-27T01:36:57.397Z,15.4
2023-04-27T01:42:49.059Z,15.4
2023-04-27T01:48:40.066Z,15.4
2023-04-27T01:54:32.390Z,15.3
2023-04-27T02:00:22.966Z,15.3
2023-04-27T02:06:00.385Z,15.3
2023-04-27T02:11:37.014Z,15.3
2023-04-27T02:17:29.043Z,20
2023-04-27T02:23:20.193Z,20.4
2023-04-27T02:29:15.827Z,20.1
2023-04-27T02:35:09.780Z,20.9
2023-04-27T02:41:00.422Z,20.6
2023-04-27T02:46:36.608Z,20.9
2023-04-27T02:52:28.821Z,20.8
2023-04-27T02:58:19.837Z,20.9
2023-04-27T03:04:13.991Z,20.6
2023-04-27T03:10:06.753Z,20.9
2023-04-27T03:15:59.576Z,20.9
2023-04-27T03:21:51.905Z,20.8
2023-04-27T03:27:27.850Z,20.9
2023-04-27T03:33:04.220Z,20.7
2023-04-27T03:38:40.351Z,20.9
2023-04-27T03:44:32.204Z,20.6
2023-04-27T03:50:23.165Z,20.8
2023-04-27T03:56:14.922Z,20.6
2023-04-27T04:02:06.209Z,20.8
2023-04-27T04:07:59.520Z,20.8
2023-04-27T04:13:51.200Z,20.7
2023-04-27T04:19:42.661Z,20.8
2023-04-27T04:25:34.002Z,20.6
2023-04-27T04:31:11.097Z,20.8
2023-04-27T04:36:47.392Z,20.5
2023-04-27T04:42:26.027Z,20.7
2023-04-27T04:48:18.665Z,20.4
2023-04-27T04:54:12.785Z,20.1
2023-04-27T05:00:05.774Z,19.9
2023-04-27T05:05:59.885Z,19.7
2023-04-27T05:11:54.429Z,19.5
2023-04-27T05:17:47.538Z,19.3
2023-04-27T05:23:25.462Z,19.1
2023-04-27T05:29:16.739Z,18.9
2023-04-27T05:35:08.322Z,18.8
2023-04-27T05:46:05.518Z,18.6
2023-04-27T05:51:42.510Z,18.5
2023-04-27T05:57:18.780Z,18.4
2023-04-27T06:03:04.799Z,18.2
2023-04-27T06:08:43.798Z,18.1
2023-04-27T06:14:20.041Z,17.9
2023-04-27T06:19:57.022Z,17.8
2023-04-27T06:25:33.035Z,17.5
2023-04-27T06:31:24.962Z,17.3
2023-04-27T06:37:16.792Z,17.1
2023-04-27T06:43:09.272Z,16.8
2023-04-27T06:49:02.530Z,16.6
2023-04-27T06:54:54.054Z,16.4
2023-04-27T07:00:47.484Z,16.2
2023-04-27T07:06:40.812Z,16.1
2023-04-27T07:12:44.834Z,15.9
2023-04-27T07:18:35.834Z,15.9
2023-04-27T07:24:29.691Z,15.9
2023-04-27T07:30:33.690Z,15.8
2023-04-27T07:36:40.785Z,15.8
2023-04-27T07:42:33.485Z,15.8
2023-04-27T07:48:25.179Z,15.8
2023-04-27T07:54:16.945Z,15.8
2023-04-27T08:00:08.088Z,15.8
2023-04-27T08:06:20.848Z,15.8
2023-04-27T08:12:03.873Z,15.8
2023-04-27T08:17:41.077Z,15.8
2023-04-27T08:22:45.725Z,15.8
2023-04-27T08:27:50.130Z,15.8
2023-04-27T08:33:25.907Z,15.8
2023-04-27T08:38:31.133Z,15.8
2023-04-27T08:44:06.421Z,15.8
2023-04-27T08:49:38.342Z,15.8
2023-04-27T08:55:16.387Z,15.8
2023-04-27T09:01:09.140Z,15.7
2023-04-27T09:07:16.025Z,15.8
2023-04-27T09:13:06.873Z,15.7
2023-04-27T09:18:57.719Z,15.8
2023-04-27T09:24:03.552Z,15.8
2023-04-27T09:29:55.144Z,15.7
2023-04-27T09:35:46.937Z,15.8
2023-04-27T09:41:38.594Z,15.7
2023-04-27T09:47:32.065Z,15.8
2023-04-27T09:53:07.686Z,15.8
2023-04-27T09:58:58.872Z,15.8
2023-04-27T10:05:22.153Z,15.8
2023-04-27T10:11:12.902Z,15.8
2023-04-27T10:17:04.894Z,15.8
2023-04-27T10:22:58.933Z,15.8
2023-04-27T10:28:51.653Z,15.8
2023-04-27T10:34:43.531Z,15.8
2023-04-27T10:40:50.316Z,15.8
2023-04-27T10:46:41.417Z,15.8
2023-04-27T10:52:33.352Z,15.8
2023-04-27T10:58:09.241Z,15.8
2023-04-27T11:03:55.053Z,15.8
2023-04-27T11:09:48.754Z,15.8
2023-04-27T11:15:24.423Z,15.8
2023-04-27T11:21:15.544Z,15.8
2023-04-27T11:27:07.348Z,15.8
2023-04-27T11:32:59.660Z,15.8
2023-04-27T11:38:50.217Z,15.8
2023-04-27T11:44:13.532Z,15.8
2023-04-27T11:49:50.027Z,15.9
2023-04-27T11:55:13.419Z,15.8
2023-04-27T12:00:34.611Z,15.9
2023-04-27T12:06:21.969Z,15.9
2023-04-27T12:11:51.896Z,15.9
2023-04-27T12:17:13.660Z,15.9
2023-04-27T12:22:50.160Z,15.9
2023-04-27T12:28:44.002Z,15.9
2023-04-27T12:34:06.016Z,15.9
2023-04-27T12:39:58.093Z,15.9
2023-04-27T12:45:48.932Z,15.9
2023-04-27T12:52:09.649Z,15.9
2023-04-27T12:58:16.263Z,15.9
2023-04-27T13:04:10.477Z,16
2023-04-27T13:10:03.387Z,16
2023-04-27T13:15:55.738Z,16
2023-04-27T13:21:53.199Z,16
2023-04-27T13:27:45.974Z,16
2023-04-27T13:33:52.370Z,16
2023-04-27T13:39:43.414Z,16.1
2023-04-27T13:45:35.791Z,16.1
2023-04-27T13:51:12.505Z,16.1
2023-04-27T13:57:03.398Z,16.1
2023-04-27T14:02:56.203Z,16.1
2023-04-27T14:08:49.362Z,16.1
2023-04-27T14:14:57.289Z,16.1
2023-04-27T14:21:01.656Z,16.1
2023-04-27T14:26:53.173Z,16.1
2023-04-27T14:32:43.959Z,16.1
2023-04-27T14:38:36.343Z,16.1
2023-04-27T14:44:27.777Z,16.1
2023-04-27T14:50:44.790Z,16.1
2023-04-27T14:56:36.603Z,16.1
2023-04-27T15:02:28.403Z,16.2
2023-04-27T15:08:21.039Z,36.4
2023-04-27T15:14:13.496Z,39.4
2023-04-27T15:20:05.702Z,44.8
2023-04-27T15:25:57.659Z,45.8
2023-04-27T15:31:51.666Z,43
2023-04-27T15:37:43.490Z,40.3
2023-04-27T15:43:35.137Z,38.2
2023-04-27T15:49:12.812Z,36.4
2023-04-27T15:55:17.049Z,35
2023-04-27T16:01:11.454Z,33.8
2023-04-27T16:07:04.858Z,32.8
2023-04-27T16:12:59.809Z,31.8
2023-04-27T16:18:36.087Z,31
2023-04-27T16:24:28.024Z,30.3
2023-04-27T16:30:19.591Z,29.6
2023-04-27T16:36:10.881Z,28.9
2023-04-27T16:41:47.597Z,28.3
2023-04-27T16:47:40.250Z,27.8
2023-04-27T16:53:32.184Z,27.2
2023-04-27T16:59:08.570Z,26.7
2023-04-27T17:05:14.278Z,26.4
2023-04-27T17:11:07.012Z,26
2023-04-27T17:16:59.248Z,25.6
2023-04-27T17:22:54.235Z,25.3
2023-04-27T17:28:45.960Z,24.9
2023-04-27T17:34:41.037Z,24.6
2023-04-27T17:40:34.977Z,24.2
2023-04-27T17:46:26.037Z,23.9
2023-04-27T17:52:18.166Z,23.6
2023-04-27T17:58:10.740Z,23.4
2023-04-27T18:03:32.727Z,23.4
2023-04-27T18:08:55.073Z,23.8
2023-04-27T18:14:33.543Z,24.2
2023-04-27T18:20:42.522Z,24.5
2023-04-27T18:26:34.757Z,24.7
2023-04-27T18:32:29.088Z,24.6
2023-04-27T18:38:20.940Z,24.6
2023-04-27T18:44:12.747Z,24.5
2023-04-27T18:49:50.222Z,24.4
2023-04-27T18:55:41.514Z,24.3
2023-04-27T19:01:34.192Z,24.2
2023-04-27T19:07:47.125Z,24.1
2023-04-27T19:13:43.540Z,23.9
2023-04-27T19:19:47.501Z,23.6
2023-04-27T19:25:41.298Z,23.4
2023-04-27T19:31:50.276Z,23.2
2023-04-27T19:37:46.765Z,22.9
2023-04-27T19:43:27.620Z,22.7
2023-04-27T19:49:20.685Z,22.4
2023-04-27T19:55:14.118Z,22.3
2023-04-27T20:01:07.112Z,22
2023-04-27T20:07:05.916Z,21.8
2023-04-27T20:13:14.555Z,21.5
2023-04-27T20:18:52.920Z,21.3
2023-04-27T20:30:26.832Z,20.9
2023-04-27T20:36:33.152Z,20.8
2023-04-27T20:42:26.809Z,20.6
2023-04-27T20:47:48.092Z,20.4
2023-04-27T20:53:53.840Z,20.3
2023-04-27T20:59:45.872Z,20.1
2023-04-27T21:05:39.855Z,19.9
2023-04-27T21:11:34.440Z,19.8
2023-04-27T21:17:26.757Z,19.7
2023-04-27T21:23:31.892Z,19.5
2023-04-27T21:29:32.499Z,19.4
2023-04-27T21:35:27.474Z,19.3
2023-04-27T21:41:19.227Z,19.2
2023-04-27T21:47:11.168Z,19.1
2023-04-27T21:52:47.401Z,18.9
2023-04-27T21:58:43.029Z,18.9
2023-04-27T22:04:35.870Z,18.8
2023-04-27T22:16:03.103Z,18.6
2023-04-27T22:21:55.361Z,18.5
2023-04-27T22:28:00.449Z,18.4
2023-04-27T22:33:52.357Z,18.3
2023-04-27T22:39:51.315Z,18.3
2023-04-27T22:45:41.882Z,18.2
2023-04-27T22:51:33.025Z,18.1
2023-04-27T22:57:24.118Z,18
2023-04-27T23:03:16.177Z,17.9
2023-04-27T23:09:08.493Z,17.8
2023-04-27T23:15:00.450Z,17.8
2023-04-27T23:20:58.238Z,17.8
2023-04-27T23:26:49.935Z,17.7
2023-04-27T23:32:41.961Z,17.6
2023-04-27T23:38:17.620Z,17.6
2023-04-27T23:43:53.329Z,17.5
2023-04-27T23:49:45.597Z,17.4
2023-04-27T23:55:21.299Z,17.4
